METAR Data
IDs: Format: Raw Decoded Include TAF

Data at: 0253 UTC 20 Jan 2022

EGYD 200220Z AUTO 30010KT 9999 NCD 02/M01 Q1031